createdAt,value
2022-10-17T00:01:47.495Z,100.00
2022-10-17T00:04:18.100Z,100.00
2022-10-17T00:06:47.887Z,100.00
2022-10-17T00:09:18.856Z,100.00
2022-10-17T00:11:50.738Z,100.00
2022-10-17T00:14:19.582Z,100.00
2022-10-17T00:16:50.008Z,100.00
2022-10-17T00:19:19.902Z,100.00
2022-10-17T00:21:51.001Z,100.00
2022-10-17T00:24:20.170Z,100.00
2022-10-17T00:26:51.777Z,100.00
2022-10-17T00:29:21.561Z,100.00
2022-10-17T00:34:24.693Z,100.00
2022-10-17T00:36:54.803Z,100.00
2022-10-17T00:39:26.180Z,100.00
2022-10-17T00:41:58.130Z,100.00
2022-10-17T00:44:54.779Z,100.00
2022-10-17T00:47:28.660Z,100.00
2022-10-17T00:49:59.649Z,100.00
2022-10-17T00:52:32.849Z,100.00
2022-10-17T00:55:17.658Z,100.00
2022-10-17T00:57:49.638Z,100.00
2022-10-17T01:00:20.458Z,100.00
2022-10-17T01:02:50.202Z,100.00
2022-10-17T01:05:20.424Z,100.00
2022-10-17T01:07:51.005Z,100.00
2022-10-17T01:13:11.283Z,100.00
2022-10-17T01:16:22.064Z,100.00
2022-10-17T01:19:28.846Z,100.00
2022-10-17T01:22:01.057Z,100.00
2022-10-17T01:24:50.275Z,100.00
2022-10-17T01:27:57.160Z,100.00
2022-10-17T01:30:43.288Z,100.00
2022-10-17T01:34:00.035Z,100.00
2022-10-17T01:37:04.188Z,100.00
2022-10-17T01:40:21.096Z,100.00
2022-10-17T01:43:09.643Z,100.00
2022-10-17T01:45:58.021Z,100.00
2022-10-17T01:48:29.133Z,100.00
2022-10-17T01:51:21.523Z,100.00
2022-10-17T01:53:59.623Z,100.00
2022-10-17T01:56:32.109Z,100.00
2022-10-17T01:59:09.985Z,100.00
2022-10-17T02:01:38.321Z,100.00
2022-10-17T02:04:07.962Z,100.00
2022-10-17T02:06:36.685Z,100.00
2022-10-17T02:09:21.280Z,100.00
2022-10-17T02:12:00.240Z,100.00
2022-10-17T02:14:54.344Z,100.00
2022-10-17T02:17:33.638Z,100.00
2022-10-17T02:20:24.806Z,100.00
2022-10-17T02:23:04.381Z,100.00
2022-10-17T02:25:46.625Z,100.00
2022-10-17T02:28:31.039Z,100.00
2022-10-17T02:31:01.762Z,100.00
2022-10-17T02:33:35.930Z,100.00
2022-10-17T02:36:07.743Z,100.00
2022-10-17T02:38:35.075Z,100.00
2022-10-17T02:41:02.285Z,100.00
2022-10-17T02:43:29.390Z,100.00
2022-10-17T02:45:56.878Z,100.00
2022-10-17T02:48:43.001Z,100.00
2022-10-17T02:51:43.508Z,100.00
2022-10-17T02:54:18.012Z,100.00
2022-10-17T02:56:51.310Z,100.00
2022-10-17T02:59:21.295Z,100.00
2022-10-17T03:01:50.054Z,100.00
2022-10-17T03:04:16.922Z,100.00
2022-10-17T03:06:45.030Z,100.00
2022-10-17T03:09:12.462Z,100.00
2022-10-17T03:11:39.265Z,100.00
2022-10-17T03:14:06.212Z,100.00
2022-10-17T03:16:33.289Z,100.00
2022-10-17T03:19:00.103Z,100.00
2022-10-17T03:21:27.283Z,100.00
2022-10-17T03:23:54.167Z,100.00
2022-10-17T03:26:21.398Z,100.00
2022-10-17T03:28:51.917Z,100.00
2022-10-17T03:31:21.978Z,100.00
2022-10-17T03:33:49.188Z,100.00
2022-10-17T03:36:18.130Z,100.00
2022-10-17T03:38:45.452Z,100.00
2022-10-17T03:41:12.601Z,100.00
2022-10-17T03:43:40.443Z,100.00
2022-10-17T03:46:07.858Z,100.00
2022-10-17T03:48:34.771Z,100.00
2022-10-17T03:51:07.031Z,100.00
2022-10-17T03:53:34.615Z,100.00
2022-10-17T03:56:19.395Z,100.00
2022-10-17T03:58:46.310Z,100.00
2022-10-17T04:01:15.053Z,100.00
2022-10-17T04:03:42.750Z,100.00
2022-10-17T04:06:12.555Z,100.00
2022-10-17T04:08:39.978Z,100.00
2022-10-17T04:11:08.777Z,100.00
2022-10-17T04:13:36.211Z,100.00
2022-10-17T04:16:06.585Z,100.00
2022-10-17T04:18:33.681Z,100.00
2022-10-17T04:21:07.628Z,100.00
2022-10-17T04:23:35.193Z,100.00
2022-10-17T04:26:03.773Z,100.00
2022-10-17T04:28:31.139Z,100.00
2022-10-17T04:30:59.833Z,100.00
2022-10-17T04:33:26.544Z,100.00
2022-10-17T04:36:00.974Z,100.00
2022-10-17T04:38:28.694Z,100.00
2022-10-17T04:41:04.038Z,100.00
2022-10-17T04:43:32.395Z,100.00
2022-10-17T04:45:59.792Z,100.00
2022-10-17T04:48:26.624Z,100.00
2022-10-17T04:51:01.318Z,100.00
2022-10-17T04:53:28.722Z,100.00
2022-10-17T04:55:55.576Z,100.00
2022-10-17T04:58:23.229Z,100.00
2022-10-17T05:00:50.164Z,100.00
2022-10-17T05:03:17.215Z,100.00
2022-10-17T05:05:44.205Z,100.00
2022-10-17T05:08:11.614Z,100.00
2022-10-17T05:10:42.371Z,100.00
2022-10-17T05:13:10.126Z,100.00
2022-10-17T05:15:38.251Z,100.00
2022-10-17T05:18:07.381Z,100.00
2022-10-17T05:20:35.811Z,100.00
2022-10-17T05:23:05.639Z,100.00
2022-10-17T05:25:37.088Z,100.00
2022-10-17T05:28:06.219Z,100.00
2022-10-17T05:30:36.805Z,100.00
2022-10-17T05:33:06.430Z,100.00
2022-10-17T05:35:36.804Z,100.00
2022-10-17T05:38:06.436Z,100.00
2022-10-17T05:40:36.408Z,100.00
2022-10-17T05:43:08.071Z,100.00
2022-10-17T05:45:39.874Z,100.00
2022-10-17T05:48:10.473Z,100.00
2022-10-17T05:50:38.793Z,100.00
2022-10-17T05:53:08.481Z,100.00
2022-10-17T05:55:39.517Z,100.00
2022-10-17T05:58:14.302Z,100.00
2022-10-17T06:00:57.798Z,100.00
2022-10-17T06:03:26.689Z,100.00
2022-10-17T06:05:56.906Z,100.00
2022-10-17T06:08:26.205Z,100.00
2022-10-17T06:10:55.681Z,100.00
2022-10-17T06:13:24.038Z,100.00
2022-10-17T06:15:52.972Z,100.00
2022-10-17T06:18:19.856Z,100.00
2022-10-17T06:20:47.100Z,100.00
2022-10-17T06:23:15.560Z,100.00
2022-10-17T06:25:42.797Z,100.00
2022-10-17T06:28:12.068Z,100.00
2022-10-17T06:30:42.518Z,100.00
2022-10-17T06:33:09.993Z,100.00
2022-10-17T06:35:36.829Z,100.00
2022-10-17T06:38:05.570Z,100.00
2022-10-17T06:40:34.559Z,100.00
2022-10-17T06:43:01.878Z,100.00
2022-10-17T06:45:29.333Z,100.00
2022-10-17T06:47:56.976Z,100.00
2022-10-17T06:50:24.729Z,100.00
2022-10-17T06:52:58.065Z,100.00
2022-10-17T06:55:27.114Z,100.00
2022-10-17T06:57:57.580Z,100.00
2022-10-17T07:00:27.212Z,100.00
2022-10-17T07:02:56.672Z,100.00
2022-10-17T07:05:27.511Z,100.00
2022-10-17T07:07:57.228Z,100.00
2022-10-17T07:10:27.679Z,100.00
2022-10-17T07:12:58.295Z,100.00
2022-10-17T07:15:26.976Z,100.00
2022-10-17T07:17:54.829Z,100.00
2022-10-17T07:20:22.624Z,100.00
2022-10-17T07:22:49.747Z,100.00
2022-10-17T07:25:18.025Z,100.00
2022-10-17T07:27:46.700Z,100.00
2022-10-17T07:30:16.425Z,100.00
2022-10-17T07:32:45.909Z,100.00
2022-10-17T07:35:14.429Z,100.00
2022-10-17T07:37:41.304Z,100.00
2022-10-17T07:40:09.934Z,100.00
2022-10-17T07:45:07.462Z,100.00
2022-10-17T07:47:38.415Z,100.00
2022-10-17T07:50:06.737Z,100.00
2022-10-17T07:52:36.028Z,100.00
2022-10-17T07:55:02.909Z,100.00
2022-10-17T07:57:30.305Z,100.00
2022-10-17T07:59:59.707Z,100.00
2022-10-17T08:02:28.935Z,100.00
2022-10-17T08:07:31.291Z,100.00
2022-10-17T08:10:00.786Z,100.00
2022-10-17T08:12:32.700Z,100.00
2022-10-17T08:15:03.443Z,100.00
2022-10-17T08:17:30.699Z,100.00
2022-10-17T08:20:00.849Z,100.00
2022-10-17T08:22:30.046Z,100.00
2022-10-17T08:25:00.352Z,100.00
2022-10-17T08:27:29.581Z,100.00
2022-10-17T08:29:57.375Z,100.00
2022-10-17T08:32:27.934Z,100.00
2022-10-17T08:34:56.439Z,100.00
2022-10-17T08:37:23.856Z,100.00
2022-10-17T08:39:51.567Z,100.00
2022-10-17T08:43:00.786Z,100.00
2022-10-17T08:45:52.906Z,100.00
2022-10-17T08:48:25.825Z,100.00
2022-10-17T08:51:03.305Z,100.00
2022-10-17T08:53:36.182Z,100.00
2022-10-17T08:56:48.539Z,100.00
2022-10-17T08:59:24.206Z,100.00
2022-10-17T09:02:04.968Z,100.00
2022-10-17T09:05:16.390Z,100.00
2022-10-17T09:08:02.848Z,98.46
2022-10-17T09:10:52.177Z,97.37
2022-10-17T09:13:58.155Z,99.05
2022-10-17T09:16:39.684Z,98.20
2022-10-17T09:19:31.915Z,99.50
2022-10-17T09:22:13.003Z,98.28
2022-10-17T09:24:46.013Z,96.92
2022-10-17T09:27:24.782Z,95.45
2022-10-17T09:29:55.978Z,95.30
2022-10-17T09:32:27.149Z,92.97
2022-10-17T09:34:56.290Z,92.26
2022-10-17T09:37:30.922Z,92.16
2022-10-17T09:39:59.507Z,91.11
2022-10-17T09:42:29.187Z,90.58
2022-10-17T09:45:06.648Z,91.00
2022-10-17T09:50:29.567Z,91.18
2022-10-17T09:53:08.814Z,89.91
2022-10-17T09:55:46.893Z,88.52
2022-10-17T09:58:17.048Z,86.45
2022-10-17T10:00:48.592Z,85.13
2022-10-17T10:03:24.070Z,84.34
2022-10-17T10:06:06.371Z,82.98
2022-10-17T10:08:59.743Z,83.48
2022-10-17T10:11:55.094Z,83.97
2022-10-17T10:14:37.150Z,84.60
2022-10-17T10:17:07.805Z,82.80
2022-10-17T10:19:38.502Z,82.37
2022-10-17T10:22:16.906Z,84.20
2022-10-17T10:24:45.115Z,82.95
2022-10-17T10:27:19.208Z,80.71
2022-10-17T10:29:54.052Z,79.72
2022-10-17T10:32:28.128Z,81.06
2022-10-17T10:35:09.586Z,79.75
2022-10-17T10:37:44.022Z,78.85
2022-10-17T10:40:23.105Z,79.31
2022-10-17T10:42:54.908Z,79.70
2022-10-17T10:45:46.970Z,78.87
2022-10-17T10:48:30.261Z,77.85
2022-10-17T10:51:06.581Z,78.66
2022-10-17T10:53:49.196Z,77.54
2022-10-17T10:56:24.595Z,77.75
2022-10-17T10:59:03.045Z,76.91
2022-10-17T11:01:50.339Z,76.83
2022-10-17T11:04:48.694Z,63.99
2022-10-17T11:07:26.452Z,65.64
2022-10-17T11:10:18.445Z,61.96
2022-10-17T11:13:05.798Z,61.38
2022-10-17T11:15:46.482Z,60.17
2022-10-17T11:18:36.719Z,60.34
2022-10-17T11:21:30.679Z,59.27
2022-10-17T11:24:28.230Z,58.41
2022-10-17T11:27:15.412Z,57.82
2022-10-17T11:29:49.681Z,57.08
2022-10-17T11:32:27.719Z,58.32
2022-10-17T11:35:20.624Z,58.08
2022-10-17T11:38:18.836Z,57.71
2022-10-17T11:40:51.036Z,58.19
2022-10-17T11:43:30.056Z,57.67
2022-10-17T11:46:04.127Z,57.25
2022-10-17T11:48:37.148Z,57.37
2022-10-17T11:54:09.844Z,57.66
2022-10-17T11:57:24.417Z,56.62
2022-10-17T12:00:35.811Z,57.46
2022-10-17T12:03:15.979Z,56.42
2022-10-17T12:05:51.854Z,56.61
2022-10-17T12:08:57.311Z,56.22
2022-10-17T12:11:39.349Z,56.40
2022-10-17T12:14:39.800Z,56.77
2022-10-17T12:17:30.009Z,56.16
2022-10-17T12:20:25.328Z,56.06
2022-10-17T12:23:14.331Z,55.81
2022-10-17T12:26:01.564Z,55.66
2022-10-17T12:28:50.892Z,56.41
2022-10-17T12:31:34.035Z,55.54
2022-10-17T12:34:04.326Z,55.19
2022-10-17T12:36:34.194Z,54.79
2022-10-17T12:39:47.579Z,54.91
2022-10-17T12:42:35.731Z,56.02
2022-10-17T12:45:18.248Z,56.09
2022-10-17T12:47:50.627Z,56.59
2022-10-17T12:50:56.532Z,55.95
2022-10-17T12:53:38.825Z,56.65
2022-10-17T12:56:10.060Z,56.02
2022-10-17T12:58:41.128Z,55.88
2022-10-17T13:01:24.101Z,55.74
2022-10-17T13:03:57.243Z,56.03
2022-10-17T13:06:28.027Z,55.98
2022-10-17T13:09:03.470Z,55.15
2022-10-17T13:11:35.410Z,54.92
2022-10-17T13:14:14.684Z,55.57
2022-10-17T13:16:55.949Z,55.75
2022-10-17T13:19:30.804Z,56.41
2022-10-17T13:22:06.946Z,56.36
2022-10-17T13:24:43.535Z,56.96
2022-10-17T13:27:33.882Z,57.71
2022-10-17T13:30:22.118Z,57.61
2022-10-17T13:32:48.973Z,58.25
2022-10-17T13:35:41.951Z,58.04
2022-10-17T13:38:14.723Z,57.98
2022-10-17T13:40:49.915Z,58.85
2022-10-17T13:43:21.187Z,58.78
2022-10-17T13:46:19.339Z,58.40
2022-10-17T13:48:52.809Z,59.49
2022-10-17T13:51:23.502Z,60.18
2022-10-17T13:53:53.454Z,60.56
2022-10-17T13:56:28.979Z,61.10
2022-10-17T13:59:06.485Z,61.69
2022-10-17T14:01:34.842Z,61.45
2022-10-17T14:04:19.494Z,61.07
2022-10-17T14:06:52.128Z,61.75
2022-10-17T14:09:29.181Z,61.53
2022-10-17T14:12:10.658Z,62.22
2022-10-17T14:15:08.724Z,62.71
2022-10-17T14:17:32.452Z,63.81
2022-10-17T14:20:40.414Z,63.34
2022-10-17T14:23:20.871Z,63.38
2022-10-17T14:25:47.494Z,63.22
2022-10-17T14:28:19.401Z,63.56
2022-10-17T14:30:56.842Z,64.34
2022-10-17T14:33:32.084Z,64.47
2022-10-17T14:36:03.734Z,64.17
2022-10-17T14:38:34.168Z,64.48
2022-10-17T14:41:41.795Z,65.02
2022-10-17T14:44:21.085Z,65.67
2022-10-17T14:46:54.565Z,65.95
2022-10-17T14:49:29.110Z,67.09
2022-10-17T14:52:20.059Z,67.48
2022-10-17T14:54:52.760Z,67.81
2022-10-17T14:57:30.579Z,67.55
2022-10-17T15:00:00.115Z,68.10
2022-10-17T15:02:30.492Z,68.59
2022-10-17T15:05:01.833Z,68.50
2022-10-17T15:07:29.787Z,68.62
2022-10-17T15:10:01.711Z,68.79
2022-10-17T15:12:33.125Z,68.21
2022-10-17T15:15:00.478Z,66.59
2022-10-17T15:17:30.992Z,66.27
2022-10-17T15:20:05.192Z,65.25
2022-10-17T15:22:32.761Z,64.52
2022-10-17T15:25:04.048Z,65.18
2022-10-17T15:27:33.689Z,65.60
2022-10-17T15:30:04.436Z,65.35
2022-10-17T15:32:33.940Z,66.33
2022-10-17T15:35:04.457Z,66.03
2022-10-17T15:37:38.110Z,66.29
2022-10-17T15:40:16.608Z,66.95
2022-10-17T15:42:45.668Z,66.83
2022-10-17T15:45:16.433Z,66.86
2022-10-17T15:47:55.386Z,67.83
2022-10-17T15:50:26.569Z,68.11
2022-10-17T15:52:57.561Z,68.62
2022-10-17T15:55:30.597Z,68.49
2022-10-17T15:58:00.557Z,69.40
2022-10-17T16:00:30.767Z,69.55
2022-10-17T16:03:01.390Z,70.40
2022-10-17T16:05:31.003Z,71.01
2022-10-17T16:08:00.958Z,71.50
2022-10-17T16:10:32.519Z,71.37
2022-10-17T16:13:02.295Z,72.08
2022-10-17T16:15:32.050Z,73.22
2022-10-17T16:18:05.847Z,72.97
2022-10-17T16:20:36.340Z,73.67
2022-10-17T16:23:05.724Z,73.73
2022-10-17T16:25:34.405Z,74.85
2022-10-17T16:28:05.417Z,74.57
2022-10-17T16:30:34.629Z,75.40
2022-10-17T16:33:05.654Z,75.57
2022-10-17T16:35:38.205Z,75.39
2022-10-17T16:38:11.100Z,75.74
2022-10-17T16:40:42.676Z,76.04
2022-10-17T16:43:15.250Z,77.11
2022-10-17T16:45:47.007Z,77.18
2022-10-17T16:48:14.166Z,77.86
2022-10-17T16:50:46.808Z,78.15
2022-10-17T16:53:19.395Z,78.45
2022-10-17T16:56:02.316Z,79.01
2022-10-17T16:58:33.664Z,79.48
2022-10-17T17:01:07.178Z,80.15
2022-10-17T17:03:39.284Z,81.21
2022-10-17T17:06:10.875Z,81.95
2022-10-17T17:08:40.873Z,83.13
2022-10-17T17:11:09.411Z,83.67
2022-10-17T17:13:37.575Z,84.26
2022-10-17T17:16:15.419Z,84.32
2022-10-17T17:18:49.953Z,85.15
2022-10-17T17:21:25.596Z,85.57
2022-10-17T17:24:00.843Z,85.45
2022-10-17T17:26:32.463Z,86.21
2022-10-17T17:29:03.784Z,86.68
2022-10-17T17:31:34.807Z,87.13
2022-10-17T17:34:04.308Z,87.66
2022-10-17T17:36:36.166Z,88.30
2022-10-17T17:39:13.266Z,88.76
2022-10-17T17:41:45.697Z,89.57
2022-10-17T17:44:16.674Z,89.56
2022-10-17T17:46:49.268Z,90.06
2022-10-17T17:49:17.468Z,90.55
2022-10-17T17:51:51.159Z,91.87
2022-10-17T17:54:19.285Z,91.25
2022-10-17T17:56:49.507Z,91.45
2022-10-17T17:59:23.141Z,91.11
2022-10-17T18:01:54.901Z,91.78
2022-10-17T18:04:25.418Z,92.10
2022-10-17T18:06:53.914Z,92.45
2022-10-17T18:09:27.153Z,93.01
2022-10-17T18:11:59.379Z,92.83
2022-10-17T18:14:31.162Z,93.71
2022-10-17T18:17:03.589Z,93.82
2022-10-17T18:19:34.601Z,94.02
2022-10-17T18:22:06.623Z,94.27
2022-10-17T18:24:38.078Z,94.21
2022-10-17T18:27:08.985Z,94.57
2022-10-17T18:29:38.199Z,95.42
2022-10-17T18:32:05.377Z,95.56
2022-10-17T18:34:36.388Z,95.41
2022-10-17T18:37:10.345Z,95.76
2022-10-17T18:39:38.535Z,95.87
2022-10-17T18:42:11.048Z,96.17
2022-10-17T18:44:47.955Z,97.23
2022-10-17T18:47:20.204Z,96.82
2022-10-17T18:49:52.965Z,96.34
2022-10-17T18:52:22.287Z,96.51
2022-10-17T18:54:54.281Z,96.11
2022-10-17T18:57:26.041Z,98.80
2022-10-17T18:59:56.725Z,98.63
2022-10-17T19:02:25.616Z,98.77
2022-10-17T19:04:56.691Z,99.46
2022-10-17T19:07:24.406Z,98.94
2022-10-17T19:09:55.622Z,98.67
2022-10-17T19:12:26.396Z,98.61
2022-10-17T19:14:56.843Z,98.58
2022-10-17T19:17:26.309Z,98.95
2022-10-17T19:19:57.039Z,99.63
2022-10-17T19:22:25.461Z,99.35
2022-10-17T19:24:56.054Z,99.77
2022-10-17T19:27:28.675Z,99.81
2022-10-17T19:29:57.863Z,100.00
2022-10-17T19:32:28.318Z,100.00
2022-10-17T19:35:00.360Z,100.00
2022-10-17T19:37:33.228Z,100.00
2022-10-17T19:40:07.022Z,100.00
2022-10-17T19:42:39.112Z,100.00
2022-10-17T19:45:08.307Z,100.00
2022-10-17T19:47:43.038Z,100.00
2022-10-17T19:50:11.825Z,100.00
2022-10-17T19:52:40.115Z,100.00
2022-10-17T19:55:11.259Z,100.00
2022-10-17T19:57:42.963Z,100.00
2022-10-17T20:00:13.870Z,100.00
2022-10-17T20:02:42.026Z,100.00
2022-10-17T20:05:19.016Z,100.00
2022-10-17T20:07:49.827Z,100.00
2022-10-17T20:10:20.995Z,100.00
2022-10-17T20:12:52.182Z,100.00
2022-10-17T20:15:22.575Z,100.00
2022-10-17T20:17:54.381Z,100.00
2022-10-17T20:20:24.230Z,100.00
2022-10-17T20:22:51.886Z,100.00
2022-10-17T20:25:22.931Z,100.00
2022-10-17T20:27:53.093Z,100.00
2022-10-17T20:30:23.730Z,100.00
2022-10-17T20:32:55.709Z,100.00
2022-10-17T20:35:29.554Z,100.00
2022-10-17T20:37:57.509Z,100.00
2022-10-17T20:40:34.988Z,100.00
2022-10-17T20:43:11.565Z,100.00
2022-10-17T20:45:51.138Z,100.00
2022-10-17T20:48:24.750Z,100.00
2022-10-17T20:50:57.792Z,100.00
2022-10-17T20:53:36.934Z,100.00
2022-10-17T20:56:12.473Z,100.00
2022-10-17T20:58:43.225Z,100.00
2022-10-17T21:01:15.329Z,100.00
2022-10-17T21:03:48.609Z,100.00
2022-10-17T21:06:21.387Z,100.00
2022-10-17T21:08:54.655Z,100.00
2022-10-17T21:11:26.402Z,100.00
2022-10-17T21:14:05.993Z,100.00
2022-10-17T21:16:40.679Z,100.00
2022-10-17T21:19:10.662Z,100.00
2022-10-17T21:21:44.263Z,100.00
2022-10-17T21:24:14.700Z,100.00
2022-10-17T21:26:43.371Z,100.00
2022-10-17T21:29:13.341Z,100.00
2022-10-17T21:31:43.283Z,100.00
2022-10-17T21:34:14.934Z,100.00
2022-10-17T21:36:42.701Z,100.00
2022-10-17T21:39:13.686Z,100.00
2022-10-17T21:41:45.543Z,100.00
2022-10-17T21:44:15.589Z,100.00
2022-10-17T21:46:44.129Z,100.00
2022-10-17T21:49:14.107Z,100.00
2022-10-17T21:51:42.687Z,100.00
2022-10-17T21:54:11.884Z,100.00
2022-10-17T21:56:42.558Z,100.00
2022-10-17T21:59:15.215Z,100.00
2022-10-17T22:01:45.810Z,100.00
2022-10-17T22:04:18.039Z,100.00
2022-10-17T22:06:51.460Z,100.00
2022-10-17T22:09:26.913Z,100.00
2022-10-17T22:11:56.069Z,100.00
2022-10-17T22:14:25.620Z,100.00
2022-10-17T22:16:54.925Z,100.00
2022-10-17T22:19:29.031Z,100.00
2022-10-17T22:21:56.812Z,100.00
2022-10-17T22:24:27.051Z,100.00
2022-10-17T22:26:57.237Z,100.00
2022-10-17T22:29:27.711Z,100.00
2022-10-17T22:31:56.744Z,100.00
2022-10-17T22:34:27.390Z,100.00
2022-10-17T22:36:58.188Z,100.00
2022-10-17T22:39:28.141Z,100.00
2022-10-17T22:41:57.270Z,100.00
2022-10-17T22:44:29.149Z,100.00
2022-10-17T22:46:58.469Z,100.00
2022-10-17T22:49:27.326Z,100.00
2022-10-17T22:51:57.487Z,100.00
2022-10-17T22:54:25.162Z,100.00
2022-10-17T22:56:55.595Z,100.00
2022-10-17T22:59:25.377Z,100.00
2022-10-17T23:01:55.491Z,100.00
2022-10-17T23:04:27.551Z,100.00
2022-10-17T23:06:57.522Z,100.00
2022-10-17T23:09:29.493Z,100.00
2022-10-17T23:12:02.274Z,100.00
2022-10-17T23:14:33.209Z,100.00
2022-10-17T23:17:01.439Z,100.00
2022-10-17T23:19:33.389Z,100.00
2022-10-17T23:22:04.047Z,100.00
2022-10-17T23:24:31.701Z,100.00
2022-10-17T23:27:01.671Z,100.00
2022-10-17T23:29:33.550Z,100.00
2022-10-17T23:32:03.498Z,100.00
2022-10-17T23:34:33.887Z,100.00
2022-10-17T23:37:03.944Z,100.00
2022-10-17T23:39:35.487Z,100.00
2022-10-17T23:42:06.081Z,100.00
2022-10-17T23:44:36.561Z,100.00
2022-10-17T23:47:08.108Z,100.00
2022-10-17T23:49:41.743Z,100.00
2022-10-17T23:52:12.466Z,100.00
2022-10-17T23:57:13.917Z,100.00
2022-10-17T23:59:44.879Z,100.00
